Time;durP1;ratioP1;P1;durP2;ratioP2;P2;SDS_P1;SDS_P2;PMS_P1;PMS_P2;Temp;Humidity;BMP_temperature;BMP_pressure;BME280_temperature;BME280_humidity;BME280_pressure;Samples;Min_cycle;Max_cycle;Signal;HPM_P1;HPM_P2
2023/05/05 00:01:27;;;;;;;8.10;3.63;;;13.30;98.00;;;;;;4991876;28;20409;-70
2023/05/05 00:03:52;;;;;;;9.75;3.70;;;13.30;98.00;;;;;;5010094;28;20030;-69
2023/05/05 00:06:18;;;;;;;10.88;3.70;;;13.40;98.20;;;;;;5008507;28;20125;-68
2023/05/05 00:08:45;;;;;;;5.80;3.50;;;13.40;98.50;;;;;;5009175;28;20045;-68
2023/05/05 00:11:10;;;;;;;10.07;4.18;;;13.40;98.50;;;;;;5023452;28;20072;-69
2023/05/05 00:13:37;;;;;;;7.40;3.30;;;13.30;98.80;;;;;;5023361;28;20034;-69
2023/05/05 00:16:03;;;;;;;4.88;3.78;;;13.30;98.90;;;;;;5023512;28;20104;-69
2023/05/05 00:18:29;;;;;;;8.07;3.15;;;13.30;99.20;;;;;;5023994;28;20054;-69
2023/05/05 00:20:55;;;;;;;5.70;3.85;;;13.30;99.40;;;;;;5024279;28;20038;-68
2023/05/05 00:23:20;;;;;;;9.82;3.53;;;13.30;99.80;;;;;;5015052;28;20493;-69
2023/05/05 00:25:46;;;;;;;9.63;3.70;;;13.30;99.90;;;;;;5008453;28;20045;-68
2023/05/05 00:28:14;;;;;;;5.97;4.18;;;13.30;99.90;;;;;;5022402;28;20405;-68
2023/05/05 00:30:40;;;;;;;9.38;4.10;;;13.30;99.90;;;;;;5008904;28;20493;-69
2023/05/05 00:33:06;;;;;;;7.15;3.83;;;13.30;99.90;;;;;;5006823;28;20041;-68
2023/05/05 00:35:32;;;;;;;7.55;3.95;;;13.30;99.90;;;;;;5008053;28;20041;-69
2023/05/05 00:37:58;;;;;;;12.98;3.95;;;13.30;99.90;;;;;;5006579;28;20046;-69
2023/05/05 00:40:24;;;;;;;8.10;4.38;;;13.30;99.90;;;;;;5023002;28;20057;-69
2023/05/05 00:42:50;;;;;;;5.43;3.63;;;13.30;99.90;;;;;;5007500;28;20034;-69
2023/05/05 00:45:17;;;;;;;8.15;4.13;;;13.30;99.90;;;;;;5024959;28;20045;-69
2023/05/05 00:47:47;;;;;;;7.25;3.95;;;13.20;99.90;;;;;;5018884;28;20034;-69
2023/05/05 00:50:26;;;;;;;6.13;4.25;;;13.20;99.90;;;;;;5023597;28;20593;-69
2023/05/05 00:52:55;;;;;;;8.15;4.35;;;13.20;99.90;;;;;;5023867;28;20490;-68
2023/05/05 00:55:20;;;;;;;7.22;4.18;;;13.10;99.90;;;;;;5021736;28;20115;-69
2023/05/05 00:57:47;;;;;;;11.18;4.82;;;13.10;99.90;;;;;;5022381;28;20046;-69
2023/05/05 01:00:13;;;;;;;8.10;4.32;;;13.10;99.90;;;;;;5007941;28;20042;-69
2023/05/05 01:02:40;;;;;;;7.43;4.13;;;13.10;99.90;;;;;;5020621;28;20049;-69
2023/05/05 01:05:10;;;;;;;10.45;5.13;;;13.10;99.90;;;;;;5008217;28;20486;-69
2023/05/05 01:07:42;;;;;;;6.68;4.18;;;13.10;99.90;;;;;;5001791;28;20070;-69
2023/05/05 01:10:10;;;;;;;11.02;4.45;;;13.10;99.90;;;;;;5007429;28;20042;-69
2023/05/05 01:12:42;;;;;;;8.77;4.68;;;13.10;99.90;;;;;;5007244;28;20120;-68
2023/05/05 01:15:15;;;;;;;9.90;4.60;;;13.00;99.90;;;;;;4984920;28;20509;-69
2023/05/05 01:17:59;;;;;;;7.97;4.93;;;13.10;99.90;;;;;;4987994;28;20148;-69
2023/05/05 01:20:39;;;;;;;7.97;4.50;;;13.00;99.90;;;;;;5008342;28;20541;-68
2023/05/05 01:23:06;;;;;;;8.05;4.60;;;13.00;99.90;;;;;;5004262;28;20074;-68
2023/05/05 01:26:03;;;;;;;9.88;4.60;;;13.00;99.90;;;;;;5006090;28;20041;-68
2023/05/05 01:29:01;;;;;;;7.88;4.70;;;13.00;99.90;;;;;;5008130;28;20041;-69
2023/05/05 01:31:50;;;;;;;5.70;4.28;;;13.00;99.90;;;;;;4997566;28;20050;-69
2023/05/05 01:34:23;;;;;;;8.60;4.82;;;12.90;99.90;;;;;;5023233;28;20038;-68
2023/05/05 01:36:56;;;;;;;8.32;4.90;;;12.90;99.90;;;;;;5006926;28;20085;-69
2023/05/05 01:39:26;;;;;;;6.97;4.70;;;12.90;99.90;;;;;;5008037;28;20091;-69
2023/05/05 01:41:58;;;;;;;7.22;4.78;;;12.90;99.90;;;;;;5008220;28;20042;-69
2023/05/05 01:44:26;;;;;;;9.63;4.30;;;12.90;99.90;;;;;;4991026;28;20176;-70
2023/05/05 01:46:53;;;;;;;9.35;4.82;;;12.90;99.90;;;;;;5022636;28;20042;-69
2023/05/05 01:49:19;;;;;;;9.48;5.10;;;12.90;99.90;;;;;;5023668;28;20486;-69
2023/05/05 01:51:46;;;;;;;7.75;4.90;;;12.90;99.90;;;;;;5024274;28;20478;-69
2023/05/05 01:54:14;;;;;;;8.23;4.90;;;12.90;99.90;;;;;;5023334;28;20362;-68
2023/05/05 01:56:40;;;;;;;10.35;4.93;;;12.80;99.90;;;;;;5006225;28;20044;-68
2023/05/05 01:59:07;;;;;;;5.78;4.43;;;12.80;99.90;;;;;;5007961;28;20112;-68
2023/05/05 02:01:36;;;;;;;8.68;5.03;;;12.80;99.90;;;;;;5010191;28;20077;-69
2023/05/05 02:04:03;;;;;;;7.50;5.07;;;12.70;99.90;;;;;;5011057;28;20108;-68
2023/05/05 02:06:31;;;;;;;13.00;5.80;;;12.70;99.90;;;;;;5026285;28;20120;-68
2023/05/05 02:08:57;;;;;;;9.98;5.13;;;12.70;99.90;;;;;;5027902;28;20042;-69
2023/05/05 02:11:25;;;;;;;9.57;4.93;;;12.60;99.90;;;;;;5010486;28;20383;-68
2023/05/05 02:13:52;;;;;;;7.35;4.63;;;12.60;99.90;;;;;;5012680;28;20117;-68
2023/05/05 02:16:19;;;;;;;8.15;5.00;;;12.60;99.90;;;;;;5010713;28;20025;-69
2023/05/05 02:18:45;;;;;;;8.55;5.28;;;12.60;99.90;;;;;;5009182;28;20046;-68
2023/05/05 02:21:13;;;;;;;6.75;4.63;;;12.60;99.90;;;;;;5027331;28;20355;-68
2023/05/05 02:23:39;;;;;;;7.15;5.18;;;12.50;99.90;;;;;;5026525;28;20121;-69
2023/05/05 02:26:10;;;;;;;8.48;4.72;;;12.50;99.90;;;;;;5027345;28;20149;-69
2023/05/05 02:28:41;;;;;;;8.13;4.40;;;12.50;99.90;;;;;;5011405;28;20121;-68
2023/05/05 02:31:08;;;;;;;7.90;5.53;;;12.40;99.90;;;;;;5011202;28;20107;-68
2023/05/05 02:33:35;;;;;;;8.30;5.18;;;12.50;99.90;;;;;;5025256;28;20073;-69
2023/05/05 02:36:20;;;;;;;8.73;5.38;;;12.40;99.90;;;;;;5010406;28;20120;-68
2023/05/05 02:38:51;;;;;;;5.50;4.63;;;12.50;99.90;;;;;;5025914;28;20042;-68
2023/05/05 02:41:19;;;;;;;7.30;4.93;;;12.40;99.90;;;;;;5026365;28;20260;-69
2023/05/05 02:43:48;;;;;;;6.55;4.50;;;12.40;99.90;;;;;;5010713;28;20041;-68
2023/05/05 02:46:16;;;;;;;8.60;4.50;;;12.40;99.90;;;;;;5026087;28;20085;-69
2023/05/05 02:48:42;;;;;;;6.00;4.60;;;12.30;99.90;;;;;;5008504;28;20042;-69
2023/05/05 02:51:07;;;;;;;6.15;4.85;;;12.40;99.90;;;;;;5009958;28;20050;-69
2023/05/05 02:53:33;;;;;;;7.47;4.88;;;12.30;99.90;;;;;;5009928;28;20038;-69
2023/05/05 02:56:08;;;;;;;8.55;4.80;;;12.30;99.90;;;;;;5026142;28;20046;-69
2023/05/05 02:58:47;;;;;;;7.93;4.90;;;12.30;99.90;;;;;;5024032;28;20041;-69
2023/05/05 03:01:47;;;;;;;8.10;5.03;;;12.30;99.90;;;;;;5009091;28;20045;-69
2023/05/05 03:04:28;;;;;;;6.40;4.97;;;12.30;99.90;;;;;;5024693;28;20510;-68
2023/05/05 03:06:58;;;;;;;6.75;5.30;;;12.30;99.90;;;;;;5023662;28;20049;-69
2023/05/05 03:09:38;;;;;;;8.77;5.50;;;12.20;99.90;;;;;;5025595;28;20512;-69
2023/05/05 03:12:20;;;;;;;7.50;5.22;;;12.20;99.90;;;;;;5004214;28;20049;-69
2023/05/05 03:14:49;;;;;;;8.02;5.38;;;12.20;99.90;;;;;;5009586;28;20505;-69
2023/05/05 03:17:17;;;;;;;7.95;5.55;;;12.20;99.90;;;;;;5021334;28;20089;-69
2023/05/05 03:19:43;;;;;;;8.93;5.10;;;12.20;99.90;;;;;;5007616;28;20045;-69
2023/05/05 03:22:10;;;;;;;6.75;5.45;;;12.10;99.90;;;;;;5022287;28;20046;-68
2023/05/05 03:24:35;;;;;;;8.68;6.28;;;12.20;99.90;;;;;;5023207;28;20042;-68
2023/05/05 03:27:01;;;;;;;8.98;5.93;;;12.20;99.90;;;;;;5024671;28;20145;-69
2023/05/05 03:29:28;;;;;;;8.68;5.40;;;12.10;99.90;;;;;;5025182;28;20049;-69
2023/05/05 03:31:55;;;;;;;10.02;5.75;;;12.10;99.90;;;;;;4999783;28;20061;-69
2023/05/05 03:34:20;;;;;;;12.85;6.35;;;12.20;99.90;;;;;;5010143;28;20033;-68
2023/05/05 03:36:46;;;;;;;7.72;5.47;;;12.10;99.90;;;;;;5020130;28;20099;-69
2023/05/05 03:39:12;;;;;;;10.85;5.78;;;12.10;99.90;;;;;;5023929;28;20042;-69
2023/05/05 03:41:37;;;;;;;11.15;5.70;;;12.10;99.90;;;;;;5009940;28;20107;-69
2023/05/05 03:44:03;;;;;;;7.60;5.53;;;12.20;99.90;;;;;;5009855;28;20037;-68
2023/05/05 03:46:29;;;;;;;8.93;6.53;;;12.20;99.90;;;;;;5010087;28;20050;-69
2023/05/05 03:48:56;;;;;;;9.02;6.22;;;12.10;99.90;;;;;;5009162;28;20038;-69
2023/05/05 03:51:22;;;;;;;16.05;7.07;;;12.20;99.90;;;;;;5009863;28;20081;-68
2023/05/05 03:53:48;;;;;;;11.88;8.07;;;12.10;99.90;;;;;;5020236;28;20042;-72
2023/05/05 03:56:14;;;;;;;23.02;9.65;;;12.00;99.90;;;;;;5025947;28;20041;-72
2023/05/05 03:58:40;;;;;;;16.88;10.57;;;11.70;99.90;;;;;;4994011;28;20052;-74
2023/05/05 04:01:05;;;;;;;16.13;10.30;;;11.50;99.90;;;;;;4993437;28;20041;-74
2023/05/05 04:03:31;;;;;;;15.10;11.18;;;11.30;99.90;;;;;;5009193;28;20038;-72
2023/05/05 04:05:57;;;;;;;21.20;11.85;;;11.10;99.90;;;;;;5010027;28;20046;-72
2023/05/05 04:08:22;;;;;;;15.95;10.40;;;11.00;99.90;;;;;;5007163;28;20034;-72
2023/05/05 04:10:48;;;;;;;17.00;11.00;;;11.00;99.90;;;;;;5009622;28;20044;-72
2023/05/05 04:13:14;;;;;;;17.77;10.20;;;11.00;99.90;;;;;;5008769;28;20124;-72
2023/05/05 04:15:46;;;;;;;18.85;11.07;;;10.90;99.90;;;;;;5008591;28;20042;-72
2023/05/05 04:18:13;;;;;;;15.80;11.32;;;10.90;99.90;;;;;;5025439;28;20096;-72
2023/05/05 04:20:39;;;;;;;14.77;12.05;;;10.90;99.90;;;;;;4998325;28;20046;-72
2023/05/05 04:23:05;;;;;;;16.48;11.60;;;10.90;99.90;;;;;;5008979;28;20034;-72
2023/05/05 04:25:30;;;;;;;14.98;11.68;;;10.90;99.90;;;;;;5009649;28;20485;-71
2023/05/05 04:27:56;;;;;;;18.13;11.90;;;10.90;99.90;;;;;;5009153;28;20038;-73
2023/05/05 04:30:22;;;;;;;23.35;12.98;;;10.90;99.90;;;;;;5009480;28;20050;-70
2023/05/05 04:32:47;;;;;;;19.45;13.07;;;10.80;99.90;;;;;;5009447;28;20129;-70
2023/05/05 04:35:13;;;;;;;22.45;13.57;;;10.70;99.90;;;;;;5008717;28;20061;-70
2023/05/05 04:37:39;;;;;;;21.85;12.10;;;10.50;99.90;;;;;;5007761;28;20033;-70
2023/05/05 04:40:05;;;;;;;13.55;10.07;;;10.30;99.90;;;;;;5008783;28;20509;-71
2023/05/05 04:42:31;;;;;;;16.30;9.82;;;10.20;99.90;;;;;;5009017;28;20069;-71
2023/05/05 04:44:57;;;;;;;17.67;11.60;;;10.00;99.90;;;;;;5025224;28;20080;-71
2023/05/05 04:47:22;;;;;;;16.83;10.10;;;10.00;99.90;;;;;;4992030;28;20117;-70
2023/05/05 04:49:48;;;;;;;19.15;12.75;;;10.00;99.90;;;;;;5008676;28;20140;-69
2023/05/05 04:52:14;;;;;;;14.88;12.07;;;10.00;99.90;;;;;;5007543;28;20044;-68
2023/05/05 04:54:40;;;;;;;13.60;11.50;;;10.00;99.90;;;;;;5006698;28;20375;-69
2023/05/05 04:57:06;;;;;;;15.57;13.77;;;10.10;99.90;;;;;;5008612;28;20038;-69
2023/05/05 04:59:31;;;;;;;18.65;14.85;;;10.10;99.90;;;;;;5008878;28;20401;-69
2023/05/05 05:01:57;;;;;;;19.17;14.05;;;10.10;99.90;;;;;;5007688;28;20040;-68
2023/05/05 05:04:24;;;;;;;18.88;14.75;;;10.10;99.90;;;;;;5008501;28;20455;-68
2023/05/05 05:06:50;;;;;;;21.63;15.73;;;10.10;99.90;;;;;;5006878;28;20053;-68
2023/05/05 05:09:16;;;;;;;21.33;15.60;;;10.20;99.90;;;;;;5009074;28;20060;-68
2023/05/05 05:11:42;;;;;;;21.60;14.27;;;10.20;99.90;;;;;;5009907;28;20038;-68
2023/05/05 05:14:07;;;;;;;22.15;14.32;;;10.20;99.90;;;;;;5008587;28;20038;-68
2023/05/05 05:16:33;;;;;;;17.92;14.45;;;10.20;99.90;;;;;;5007470;28;20046;-68
2023/05/05 05:18:59;;;;;;;18.98;14.68;;;10.10;99.90;;;;;;5008831;28;20048;-68
2023/05/05 05:21:25;;;;;;;21.83;15.65;;;10.10;99.90;;;;;;5007471;28;20168;-69
2023/05/05 05:23:51;;;;;;;20.55;17.50;;;10.20;99.90;;;;;;5008976;28;20046;-68
2023/05/05 05:26:16;;;;;;;20.17;15.98;;;10.30;99.90;;;;;;5008060;28;20053;-69
2023/05/05 05:28:42;;;;;;;21.75;17.52;;;10.30;99.90;;;;;;5007819;28;20525;-69
2023/05/05 05:31:08;;;;;;;18.60;15.63;;;10.40;99.90;;;;;;5006518;28;20081;-69
2023/05/05 05:33:33;;;;;;;20.85;15.25;;;10.40;99.90;;;;;;5007241;28;20069;-69
2023/05/05 05:35:59;;;;;;;24.02;17.65;;;10.50;99.90;;;;;;5011105;28;20045;-69
2023/05/05 05:38:25;;;;;;;18.50;15.32;;;10.60;99.90;;;;;;5013645;28;20025;-69
2023/05/05 05:40:50;;;;;;;18.98;14.93;;;10.60;99.90;;;;;;5012486;28;20038;-69
2023/05/05 05:43:16;;;;;;;16.23;14.32;;;10.70;99.90;;;;;;5012308;28;20100;-69
2023/05/05 05:45:42;;;;;;;16.77;13.73;;;10.80;99.90;;;;;;5012192;28;20404;-69
2023/05/05 05:48:07;;;;;;;17.88;16.13;;;10.80;99.90;;;;;;5011202;28;20156;-69
2023/05/05 05:50:34;;;;;;;21.77;15.55;;;10.90;99.90;;;;;;5012346;28;20129;-69
2023/05/05 05:53:00;;;;;;;19.92;15.50;;;10.90;99.90;;;;;;5010793;28;20061;-69
2023/05/05 05:55:26;;;;;;;19.05;15.75;;;11.10;99.90;;;;;;5010025;28;20045;-70
2023/05/05 05:57:51;;;;;;;18.88;15.27;;;11.10;99.90;;;;;;5012052;28;20036;-70
2023/05/05 06:00:17;;;;;;;18.00;14.38;;;11.10;99.90;;;;;;5012161;28;20038;-70
2023/05/05 06:02:43;;;;;;;15.77;14.10;;;11.20;99.90;;;;;;5011099;28;20096;-70
2023/05/05 06:05:09;;;;;;;14.30;12.43;;;11.20;99.90;;;;;;5011096;28;20040;-70
2023/05/05 06:07:35;;;;;;;16.25;13.50;;;11.30;99.90;;;;;;5010900;28;20084;-70
2023/05/05 06:10:00;;;;;;;18.67;13.48;;;11.30;99.90;;;;;;5012129;28;20065;-71
2023/05/05 06:12:26;;;;;;;12.48;11.18;;;11.40;99.90;;;;;;5011719;28;20037;-69
2023/05/05 06:14:52;;;;;;;13.05;10.73;;;11.50;99.90;;;;;;5010918;28;20041;-71
2023/05/05 06:17:18;;;;;;;13.30;9.88;;;11.50;99.90;;;;;;5010918;28;20552;-71
2023/05/05 06:19:43;;;;;;;16.27;11.20;;;11.60;99.90;;;;;;5012439;28;20567;-71
2023/05/05 06:22:09;;;;;;;14.63;11.57;;;11.70;99.90;;;;;;5012851;28;20038;-71
2023/05/05 06:24:35;;;;;;;14.48;11.27;;;11.80;99.90;;;;;;5012748;28;20041;-70
2023/05/05 06:27:01;;;;;;;15.45;12.13;;;11.90;99.90;;;;;;5012333;28;20445;-71
2023/05/05 06:29:27;;;;;;;14.30;12.80;;;12.00;99.90;;;;;;5012108;28;20062;-71
2023/05/05 06:31:53;;;;;;;14.50;11.27;;;12.10;99.90;;;;;;5011150;28;20045;-70
2023/05/05 06:34:19;;;;;;;12.68;10.05;;;12.20;99.90;;;;;;4996074;28;20041;-71
2023/05/05 06:36:45;;;;;;;16.67;11.10;;;12.20;99.90;;;;;;5012174;28;20052;-71
2023/05/05 06:39:11;;;;;;;13.48;12.13;;;12.20;99.90;;;;;;5012054;28;20073;-71
2023/05/05 06:41:37;;;;;;;14.63;11.55;;;12.30;99.90;;;;;;5027559;28;20398;-71
2023/05/05 06:44:03;;;;;;;15.77;12.77;;;12.40;99.90;;;;;;5011500;28;20049;-71
2023/05/05 06:46:29;;;;;;;15.75;14.15;;;12.50;99.90;;;;;;5009032;28;20469;-71
2023/05/05 06:48:55;;;;;;;13.38;10.57;;;12.70;99.90;;;;;;5026539;28;20049;-71
2023/05/05 06:51:21;;;;;;;11.57;10.25;;;12.80;99.90;;;;;;5010996;28;20132;-71
2023/05/05 06:53:47;;;;;;;16.30;12.00;;;12.90;99.90;;;;;;5009309;28;20129;-71
2023/05/05 06:56:13;;;;;;;15.00;11.07;;;13.00;99.90;;;;;;5010785;28;20120;-72
2023/05/05 06:58:38;;;;;;;17.08;11.82;;;13.10;99.90;;;;;;5010968;28;20041;-72
2023/05/05 07:01:04;;;;;;;13.10;11.02;;;13.30;99.90;;;;;;5011124;28;20505;-72
2023/05/05 07:03:30;;;;;;;15.93;10.80;;;13.40;99.90;;;;;;5010335;28;20080;-72
2023/05/05 07:05:56;;;;;;;13.00;11.57;;;13.60;99.90;;;;;;5011892;28;20076;-72
2023/05/05 07:08:22;;;;;;;12.90;11.63;;;13.80;99.90;;;;;;5010938;28;20041;-72
2023/05/05 07:10:48;;;;;;;16.17;11.52;;;13.90;99.90;;;;;;5012013;28;20101;-72
2023/05/05 07:13:15;;;;;;;13.73;11.40;;;13.90;99.90;;;;;;5009230;28;20041;-72
2023/05/05 07:15:45;;;;;;;15.15;12.30;;;13.90;99.90;;;;;;5012502;28;20081;-73
2023/05/05 07:18:15;;;;;;;12.80;11.48;;;13.90;99.90;;;;;;5010887;28;20041;-72
2023/05/05 07:20:42;;;;;;;14.20;11.98;;;14.00;99.90;;;;;;5011937;28;20038;-72
2023/05/05 07:23:08;;;;;;;14.45;10.48;;;14.20;99.90;;;;;;5013638;28;20073;-73
2023/05/05 07:25:34;;;;;;;12.57;10.73;;;14.40;99.90;;;;;;5011330;28;20056;-73
2023/05/05 07:28:00;;;;;;;12.70;10.32;;;14.50;99.90;;;;;;5015027;28;20050;-73
2023/05/05 07:30:26;;;;;;;13.43;11.88;;;14.70;99.90;;;;;;5013828;28;20129;-73
2023/05/05 07:32:51;;;;;;;13.80;10.90;;;14.80;99.90;;;;;;5008364;28;20180;-72
2023/05/05 07:35:17;;;;;;;14.65;13.25;;;15.10;99.90;;;;;;5014523;28;20109;-73
2023/05/05 07:37:44;;;;;;;16.23;12.75;;;15.20;99.90;;;;;;5014258;28;20038;-73
2023/05/05 07:40:11;;;;;;;13.88;11.98;;;15.50;99.90;;;;;;5012331;28;20507;-73
2023/05/05 07:42:37;;;;;;;13.77;11.20;;;16.00;99.90;;;;;;5012607;28;20100;-70
2023/05/05 07:45:03;;;;;;;14.43;12.75;;;16.50;99.90;;;;;;5011522;28;20062;-70
2023/05/05 07:47:29;;;;;;;12.30;11.02;;;17.20;99.90;;;;;;5009872;28;20053;-71
2023/05/05 07:49:55;;;;;;;14.30;12.27;;;17.70;99.90;;;;;;5010401;28;20057;-71
2023/05/05 07:52:21;;;;;;;13.93;12.57;;;18.00;99.90;;;;;;5007712;28;20045;-70
2023/05/05 07:54:47;;;;;;;12.88;11.55;;;18.20;99.90;;;;;;5010166;28;20058;-70
2023/05/05 07:57:13;;;;;;;12.43;11.13;;;18.80;99.90;;;;;;5009481;28;20053;-70
2023/05/05 07:59:42;;;;;;;12.95;11.75;;;19.20;99.90;;;;;;5027259;28;20725;-70
2023/05/05 08:02:12;;;;;;;13.25;11.07;;;19.50;99.90;;;;;;5008066;28;20752;-71
2023/05/05 08:04:39;;;;;;;14.18;10.23;;;19.40;99.90;;;;;;5010234;28;20498;-71
2023/05/05 08:07:05;;;;;;;12.85;11.65;;;19.40;99.90;;;;;;5009919;28;20048;-73
2023/05/05 08:09:30;;;;;;;11.63;10.45;;;19.50;99.90;;;;;;5010694;28;20037;-71
2023/05/05 08:11:56;;;;;;;11.13;10.02;;;19.70;99.90;;;;;;5010147;28;20042;-70
2023/05/05 08:14:22;;;;;;;12.90;10.98;;;19.80;99.90;;;;;;5011372;28;20038;-70
2023/05/05 08:16:47;;;;;;;15.65;11.10;;;19.70;99.90;;;;;;5006012;28;20353;-70
2023/05/05 08:19:13;;;;;;;11.75;10.73;;;19.90;99.90;;;;;;5009419;28;20474;-70
2023/05/05 08:21:39;;;;;;;11.93;10.75;;;20.20;99.90;;;;;;5009341;28;20060;-70
2023/05/05 08:24:05;;;;;;;12.52;11.23;;;20.80;99.90;;;;;;4992812;28;20034;-71
2023/05/05 08:26:30;;;;;;;11.85;10.63;;;21.20;99.90;;;;;;5008553;28;20551;-71
2023/05/05 08:28:59;;;;;;;11.50;10.27;;;21.60;99.90;;;;;;5009332;28;20062;-71
2023/05/05 08:31:26;;;;;;;11.93;10.77;;;21.80;99.90;;;;;;5007553;28;20077;-71
2023/05/05 08:33:52;;;;;;;12.27;10.73;;;21.70;99.90;;;;;;5009048;28;20093;-71
2023/05/05 08:36:18;;;;;;;13.50;12.13;;;21.60;99.90;;;;;;5024919;28;20075;-71
2023/05/05 08:38:45;;;;;;;12.95;11.75;;;21.70;99.90;;;;;;5008958;28;20037;-71
2023/05/05 08:41:13;;;;;;;14.32;11.80;;;21.50;99.90;;;;;;5009057;28;20077;-71
2023/05/05 08:43:38;;;;;;;13.63;12.15;;;21.50;99.90;;;;;;5010002;28;20042;-71
2023/05/05 08:46:05;;;;;;;13.82;11.82;;;21.40;99.90;;;;;;5006537;28;20037;-71
2023/05/05 08:48:34;;;;;;;13.00;11.73;;;21.40;99.90;;;;;;5006453;28;20525;-72
2023/05/05 08:51:03;;;;;;;12.95;11.65;;;21.30;99.90;;;;;;5000054;28;20050;-71
2023/05/05 08:53:59;;;;;;;14.80;13.30;;;21.40;99.90;;;;;;5008092;28;20045;-71
2023/05/05 08:56:26;;;;;;;14.35;12.88;;;21.60;99.90;;;;;;5007783;28;20426;-72
2023/05/05 08:58:53;;;;;;;14.43;12.52;;;21.90;99.90;;;;;;5024946;28;20069;-72
2023/05/05 09:01:20;;;;;;;16.63;13.60;;;22.10;99.90;;;;;;5005162;28;20045;-71
2023/05/05 09:03:45;;;;;;;14.43;12.90;;;21.80;99.90;;;;;;5025041;28;20052;-71
2023/05/05 09:06:11;;;;;;;14.13;12.68;;;21.80;99.90;;;;;;5007428;28;20034;-71
2023/05/05 09:08:38;;;;;;;14.55;12.75;;;22.00;99.90;;;;;;5007054;28;20402;-71
2023/05/05 09:11:04;;;;;;;14.82;11.45;;;22.00;99.90;;;;;;5007696;28;20648;-71
2023/05/05 09:13:31;;;;;;;15.73;12.98;;;22.40;99.90;;;;;;5008373;28;20042;-71
2023/05/05 09:15:57;;;;;;;14.00;11.95;;;22.80;99.90;;;;;;5002697;28;20485;-71
2023/05/05 09:18:23;;;;;;;13.85;12.35;;;23.20;99.90;;;;;;5007505;28;20450;-71
2023/05/05 09:20:49;;;;;;;13.98;12.57;;;23.50;99.90;;;;;;5010120;28;20223;-71
2023/05/05 09:23:17;;;;;;;13.23;11.85;;;23.70;99.90;;;;;;5007814;28;20038;-71
2023/05/05 09:25:45;;;;;;;12.85;11.65;;;23.90;99.90;;;;;;5008281;28;20042;-70
2023/05/05 09:28:16;;;;;;;13.73;11.77;;;24.00;99.90;;;;;;5007543;28;20034;-70
2023/05/05 09:30:46;;;;;;;12.52;11.25;;;23.70;99.90;;;;;;5006860;28;20065;-70
2023/05/05 09:33:12;;;;;;;13.80;12.23;;;23.80;99.90;;;;;;5006909;28;20468;-70
2023/05/05 09:35:51;;;;;;;12.95;10.93;;;24.10;99.90;;;;;;5021628;28;20216;-70
2023/05/05 09:38:18;;;;;;;11.82;10.65;;;24.20;99.90;;;;;;5005359;28;20041;-70
2023/05/05 09:40:46;;;;;;;12.32;11.18;;;24.20;99.90;;;;;;5007367;28;20041;-70
2023/05/05 09:43:12;;;;;;;13.10;11.80;;;23.90;99.90;;;;;;5008857;28;20034;-70
2023/05/05 09:45:38;;;;;;;67.95;61.63;;;23.30;99.90;;;;;;5008880;28;20551;-69
2023/05/05 09:48:05;;;;;;;12.60;11.50;;;22.80;99.90;;;;;;5006306;28;20038;-70
2023/05/05 09:50:42;;;;;;;13.50;12.07;;;22.50;99.90;;;;;;5007407;28;20042;-69
2023/05/05 09:53:09;;;;;;;12.27;11.18;;;22.20;99.90;;;;;;5006585;28;20088;-70
2023/05/05 09:55:35;;;;;;;13.50;10.45;;;22.00;99.90;;;;;;5009192;28;20044;-70
2023/05/05 09:58:22;;;;;;;10.75;8.98;;;21.90;99.90;;;;;;5007121;28;20414;-69
2023/05/05 10:00:48;;;;;;;9.90;9.00;;;22.00;99.90;;;;;;5008890;28;20088;-70
2023/05/05 10:03:14;;;;;;;11.48;9.75;;;22.00;99.90;;;;;;5005898;28;20441;-69
2023/05/05 10:05:50;;;;;;;13.30;12.00;;;22.00;99.90;;;;;;5006752;28;20107;-71
2023/05/05 10:08:21;;;;;;;12.35;11.02;;;22.10;99.90;;;;;;5005234;28;20046;-70
2023/05/05 10:11:05;;;;;;;11.10;9.10;;;22.00;99.90;;;;;;5008252;28;20033;-70
2023/05/05 10:13:35;;;;;;;10.93;9.65;;;22.10;99.90;;;;;;5022064;28;20046;-70
2023/05/05 10:16:02;;;;;;;18.85;16.92;;;22.40;99.90;;;;;;5005718;28;20505;-69
2023/05/05 10:18:31;;;;;;;57.08;51.58;;;22.80;99.90;;;;;;4988883;28;20041;-71
2023/05/05 10:21:02;;;;;;;8.77;7.35;;;23.00;99.90;;;;;;5008002;28;20080;-71
2023/05/05 10:23:37;;;;;;;6.40;5.80;;;23.00;99.90;;;;;;5011389;28;20045;-70
2023/05/05 10:26:05;;;;;;;9.32;6.97;;;23.40;99.90;;;;;;5027714;28;20162;-71
2023/05/05 10:28:53;;;;;;;8.02;5.90;;;23.70;99.90;;;;;;5024654;28;20132;-70
2023/05/05 10:31:46;;;;;;;5.53;4.55;;;24.20;99.90;;;;;;5007749;28;20090;-70
2023/05/05 10:34:28;;;;;;;12.23;9.93;;;24.10;99.90;;;;;;5009599;28;20122;-70
2023/05/05 10:36:56;;;;;;;7.13;5.63;;;23.90;99.90;;;;;;5011093;28;20400;-70
2023/05/05 10:39:23;;;;;;;7.13;5.60;;;24.00;99.90;;;;;;5009876;28;20064;-70
2023/05/05 10:41:50;;;;;;;5.80;5.20;;;23.90;99.90;;;;;;5011351;28;20108;-70
2023/05/05 10:44:16;;;;;;;7.60;4.90;;;23.70;99.90;;;;;;5024296;28;20044;-70
2023/05/05 10:46:43;;;;;;;6.40;4.90;;;23.60;99.90;;;;;;4992449;28;20509;-70
2023/05/05 10:49:21;;;;;;;6.13;4.78;;;23.50;99.90;;;;;;5011290;28;20042;-70
2023/05/05 10:52:15;;;;;;;5.78;4.10;;;23.40;99.90;;;;;;5025312;28;20122;-71
2023/05/05 10:54:46;;;;;;;;;;;23.50;99.90;;;;;;5010855;28;20117;-71
2023/05/05 10:57:15;;;;;;;5.95;4.38;;;23.50;99.90;;;;;;5009005;28;19925;-70
2023/05/05 10:59:41;;;;;;;5.93;3.70;;;23.60;99.90;;;;;;5026149;28;20073;-70
2023/05/05 11:02:24;;;;;;;6.47;3.22;;;23.70;99.90;;;;;;5025229;28;20099;-70
2023/05/05 11:05:09;;;;;;;6.05;3.50;;;23.60;99.90;;;;;;5010164;28;20381;-70
2023/05/05 11:07:38;;;;;;;5.30;4.18;;;23.60;99.90;;;;;;5006186;28;20052;-70
2023/05/05 11:10:07;;;;;;;6.80;5.97;;;23.30;99.90;;;;;;5025910;28;20205;-69
2023/05/05 11:12:56;;;;;;;5.43;4.50;;;23.10;99.90;;;;;;5007826;28;20535;-68
2023/05/05 11:15:28;;;;;;;5.90;5.30;;;22.90;99.90;;;;;;5010820;28;20038;-69
2023/05/05 11:17:55;;;;;;;6.28;4.97;;;22.80;99.90;;;;;;5008007;28;20054;-69
2023/05/05 11:20:38;;;;;;;8.15;5.32;;;22.70;99.90;;;;;;5010906;28;20502;-69
2023/05/05 11:23:04;;;;;;;9.00;5.82;;;22.50;99.90;;;;;;5024237;28;20112;-69
2023/05/05 11:25:35;;;;;;;7.18;5.80;;;22.30;99.90;;;;;;5026028;28;20485;-69
2023/05/05 11:28:05;;;;;;;6.88;5.93;;;22.20;99.90;;;;;;5026174;28;20038;-70
2023/05/05 11:30:31;;;;;;;8.30;5.97;;;22.10;99.90;;;;;;5012208;28;20506;-68
2023/05/05 11:33:24;;;;;;;7.32;6.18;;;21.90;99.90;;;;;;5021892;28;20103;-69
2023/05/05 11:35:54;;;;;;;7.82;6.40;;;21.80;99.90;;;;;;5000168;28;20085;-69
2023/05/05 11:38:25;;;;;;;7.25;5.72;;;21.70;99.90;;;;;;5007269;28;20050;-70
2023/05/05 11:40:58;;;;;;;8.80;6.18;;;21.60;99.90;;;;;;5025669;28;20049;-70
2023/05/05 11:43:24;;;;;;;6.47;4.05;;;21.50;99.90;;;;;;5009771;28;20564;-71
2023/05/05 11:46:09;;;;;;;30.08;25.83;;;21.50;99.90;;;;;;5027438;28;20041;-70
2023/05/05 11:48:44;;;;;;;15.52;13.93;;;21.60;99.90;;;;;;5020214;28;20448;-70
2023/05/05 11:51:12;;;;;;;6.20;4.18;;;21.60;99.90;;;;;;5011750;28;20041;-69
2023/05/05 11:53:48;;;;;;;8.68;5.15;;;21.70;99.90;;;;;;5026665;28;20046;-70
2023/05/05 11:56:17;;;;;;;6.38;4.40;;;21.80;99.90;;;;;;5008402;28;20081;-71
2023/05/05 11:58:44;;;;;;;6.10;4.10;;;21.70;99.90;;;;;;5024669;28;20498;-70
2023/05/05 12:01:11;;;;;;;7.30;4.28;;;21.70;99.90;;;;;;5024294;28;20034;-70
2023/05/05 12:03:38;;;;;;;7.57;3.70;;;21.60;99.90;;;;;;5022267;28;20347;-71
2023/05/05 12:06:07;;;;;;;6.10;3.58;;;21.60;99.90;;;;;;5025031;28;20045;-71
2023/05/05 12:08:40;;;;;;;5.15;3.35;;;21.60;99.90;;;;;;5020616;28;20468;-70
2023/05/05 12:11:07;;;;;;;7.53;3.03;;;21.60;99.90;;;;;;5024020;28;20137;-71
2023/05/05 12:13:33;;;;;;;8.23;2.88;;;21.60;99.90;;;;;;5009262;28;20091;-70
2023/05/05 12:16:14;;;;;;;5.38;2.95;;;21.40;99.90;;;;;;5007384;28;20136;-70
2023/05/05 12:18:40;;;;;;;4.95;3.05;;;21.30;99.90;;;;;;5002228;28;20048;-71
2023/05/05 12:21:16;;;;;;;7.38;3.50;;;21.20;99.90;;;;;;5022019;28;20576;-74
2023/05/05 12:23:42;;;;;;;8.15;2.70;;;21.10;99.90;;;;;;5007187;28;20452;-69
2023/05/05 12:26:27;;;;;;;5.78;3.05;;;20.90;99.90;;;;;;5017611;28;20141;-71
2023/05/05 12:28:54;;;;;;;7.60;3.28;;;20.70;99.90;;;;;;5008470;28;20053;-72
2023/05/05 12:31:20;;;;;;;7.75;2.60;;;20.50;99.90;;;;;;5007197;28;20041;-69
2023/05/05 12:33:47;;;;;;;6.72;3.40;;;20.30;99.90;;;;;;5006637;28;20571;-68
2023/05/05 12:36:14;;;;;;;5.78;2.97;;;19.90;99.90;;;;;;5023906;28;20506;-68
2023/05/05 12:38:40;;;;;;;7.15;2.88;;;19.70;99.90;;;;;;5022675;28;20107;-68
2023/05/05 12:41:06;;;;;;;4.85;2.67;;;19.30;99.90;;;;;;5004926;28;20038;-65
2023/05/05 12:43:33;;;;;;;8.00;2.72;;;19.00;99.90;;;;;;5008208;28;20049;-72